sensor_id;sensor_type;location;lat;lon;timestamp;P1;durP1;ratioP1;P2;durP2;ratioP2
75073;SDS011;63652;51.526;5.080;2022-12-05T00:00:57;23.98;;;9.68;;
75073;SDS011;63652;51.526;5.080;2022-12-05T00:03:24;36.30;;;16.75;;
75073;SDS011;63652;51.526;5.080;2022-12-05T00:05:49;36.90;;;15.02;;
75073;SDS011;63652;51.526;5.080;2022-12-05T00:08:15;19.90;;;10.25;;
75073;SDS011;63652;51.526;5.080;2022-12-05T00:10:40;37.90;;;15.25;;
75073;SDS011;63652;51.526;5.080;2022-12-05T00:13:06;40.60;;;16.67;;
75073;SDS011;63652;51.526;5.080;2022-12-05T00:15:35;38.60;;;15.63;;
75073;SDS011;63652;51.526;5.080;2022-12-05T00:18:01;42.70;;;17.08;;
75073;SDS011;63652;51.526;5.080;2022-12-05T00:20:26;45.25;;;18.73;;
75073;SDS011;63652;51.526;5.080;2022-12-05T00:22:52;44.10;;;17.80;;
75073;SDS011;63652;51.526;5.080;2022-12-05T00:25:17;44.92;;;18.27;;
75073;SDS011;63652;51.526;5.080;2022-12-05T00:27:42;41.25;;;16.98;;
75073;SDS011;63652;51.526;5.080;2022-12-05T00:30:08;36.35;;;15.95;;
75073;SDS011;63652;51.526;5.080;2022-12-05T00:32:33;40.58;;;16.77;;
75073;SDS011;63652;51.526;5.080;2022-12-05T00:34:59;39.78;;;17.45;;
75073;SDS011;63652;51.526;5.080;2022-12-05T00:37:24;37.83;;;16.65;;
75073;SDS011;63652;51.526;5.080;2022-12-05T00:39:50;47.78;;;20.45;;
75073;SDS011;63652;51.526;5.080;2022-12-05T00:42:15;48.08;;;18.52;;
75073;SDS011;63652;51.526;5.080;2022-12-05T00:44:41;49.55;;;21.15;;
75073;SDS011;63652;51.526;5.080;2022-12-05T00:47:06;43.17;;;18.30;;
75073;SDS011;63652;51.526;5.080;2022-12-05T00:49:32;47.25;;;19.38;;
75073;SDS011;63652;51.526;5.080;2022-12-05T00:51:57;46.67;;;17.77;;
75073;SDS011;63652;51.526;5.080;2022-12-05T00:54:22;45.60;;;16.35;;
75073;SDS011;63652;51.526;5.080;2022-12-05T00:56:48;49.20;;;20.42;;
75073;SDS011;63652;51.526;5.080;2022-12-05T00:59:16;50.45;;;18.50;;
75073;SDS011;63652;51.526;5.080;2022-12-05T01:01:43;54.42;;;18.30;;
75073;SDS011;63652;51.526;5.080;2022-12-05T01:04:11;50.50;;;19.67;;
75073;SDS011;63652;51.526;5.080;2022-12-05T01:06:38;45.58;;;17.15;;
75073;SDS011;63652;51.526;5.080;2022-12-05T01:09:04;49.75;;;19.13;;
75073;SDS011;63652;51.526;5.080;2022-12-05T01:11:30;44.28;;;19.70;;
75073;SDS011;63652;51.526;5.080;2022-12-05T01:13:55;48.67;;;18.60;;
75073;SDS011;63652;51.526;5.080;2022-12-05T01:16:22;30.85;;;14.68;;
75073;SDS011;63652;51.526;5.080;2022-12-05T01:18:56;43.83;;;19.05;;
75073;SDS011;63652;51.526;5.080;2022-12-05T01:21:22;47.45;;;18.58;;
75073;SDS011;63652;51.526;5.080;2022-12-05T01:23:48;52.22;;;19.25;;
75073;SDS011;63652;51.526;5.080;2022-12-05T01:26:14;47.40;;;19.15;;
75073;SDS011;63652;51.526;5.080;2022-12-05T01:28:41;50.30;;;20.70;;
75073;SDS011;63652;51.526;5.080;2022-12-05T01:33:53;47.45;;;18.40;;
75073;SDS011;63652;51.526;5.080;2022-12-05T01:36:20;50.83;;;19.45;;
75073;SDS011;63652;51.526;5.080;2022-12-05T01:38:46;45.45;;;19.30;;
75073;SDS011;63652;51.526;5.080;2022-12-05T01:41:13;45.15;;;18.25;;
75073;SDS011;63652;51.526;5.080;2022-12-05T01:46:24;48.17;;;19.50;;
75073;SDS011;63652;51.526;5.080;2022-12-05T01:48:51;49.08;;;19.58;;
75073;SDS011;63652;51.526;5.080;2022-12-05T01:51:19;49.67;;;19.70;;
75073;SDS011;63652;51.526;5.080;2022-12-05T01:53:45;53.10;;;20.02;;
75073;SDS011;63652;51.526;5.080;2022-12-05T01:56:10;40.08;;;17.42;;
75073;SDS011;63652;51.526;5.080;2022-12-05T01:58:36;44.08;;;19.58;;
75073;SDS011;63652;51.526;5.080;2022-12-05T02:01:02;47.85;;;18.25;;
75073;SDS011;63652;51.526;5.080;2022-12-05T02:03:28;48.70;;;19.67;;
75073;SDS011;63652;51.526;5.080;2022-12-05T02:05:54;50.40;;;19.38;;
75073;SDS011;63652;51.526;5.080;2022-12-05T02:08:21;46.67;;;18.27;;
75073;SDS011;63652;51.526;5.080;2022-12-05T02:10:50;47.00;;;18.50;;
75073;SDS011;63652;51.526;5.080;2022-12-05T02:13:23;51.17;;;19.80;;
75073;SDS011;63652;51.526;5.080;2022-12-05T02:15:55;38.92;;;18.20;;
75073;SDS011;63652;51.526;5.080;2022-12-05T02:18:38;34.22;;;15.50;;
75073;SDS011;63652;51.526;5.080;2022-12-05T02:21:27;43.35;;;18.00;;
75073;SDS011;63652;51.526;5.080;2022-12-05T02:32:52;38.17;;;16.77;;
75073;SDS011;63652;51.526;5.080;2022-12-05T02:43:12;41.83;;;17.75;;
75073;SDS011;63652;51.526;5.080;2022-12-05T02:45:43;34.67;;;13.68;;
75073;SDS011;63652;51.526;5.080;2022-12-05T02:48:09;42.20;;;18.65;;
75073;SDS011;63652;51.526;5.080;2022-12-05T02:50:36;35.17;;;15.02;;
75073;SDS011;63652;51.526;5.080;2022-12-05T02:53:03;41.25;;;19.45;;
75073;SDS011;63652;51.526;5.080;2022-12-05T02:55:34;48.13;;;18.35;;
75073;SDS011;63652;51.526;5.080;2022-12-05T02:58:02;45.17;;;18.48;;
75073;SDS011;63652;51.526;5.080;2022-12-05T03:00:30;39.92;;;14.07;;
75073;SDS011;63652;51.526;5.080;2022-12-05T03:02:56;43.35;;;16.60;;
75073;SDS011;63652;51.526;5.080;2022-12-05T03:05:29;45.53;;;18.70;;
75073;SDS011;63652;51.526;5.080;2022-12-05T03:08:03;45.33;;;17.40;;
75073;SDS011;63652;51.526;5.080;2022-12-05T03:10:31;39.05;;;17.15;;
75073;SDS011;63652;51.526;5.080;2022-12-05T03:12:59;45.67;;;18.35;;
75073;SDS011;63652;51.526;5.080;2022-12-05T03:15:30;41.05;;;18.60;;
75073;SDS011;63652;51.526;5.080;2022-12-05T03:17:59;48.38;;;20.00;;
75073;SDS011;63652;51.526;5.080;2022-12-05T03:20:32;42.50;;;17.98;;
75073;SDS011;63652;51.526;5.080;2022-12-05T03:32:05;43.28;;;19.27;;
75073;SDS011;63652;51.526;5.080;2022-12-05T03:37:23;50.70;;;17.93;;
75073;SDS011;63652;51.526;5.080;2022-12-05T03:51:29;43.10;;;18.08;;
75073;SDS011;63652;51.526;5.080;2022-12-05T03:54:05;44.08;;;17.33;;
75073;SDS011;63652;51.526;5.080;2022-12-05T03:56:34;45.58;;;18.90;;
75073;SDS011;63652;51.526;5.080;2022-12-05T04:01:59;43.00;;;19.10;;
75073;SDS011;63652;51.526;5.080;2022-12-05T04:06:57;43.17;;;17.73;;
75073;SDS011;63652;51.526;5.080;2022-12-05T04:09:27;43.15;;;17.67;;
75073;SDS011;63652;51.526;5.080;2022-12-05T04:11:58;47.20;;;18.35;;
75073;SDS011;63652;51.526;5.080;2022-12-05T04:17:11;42.50;;;16.48;;
75073;SDS011;63652;51.526;5.080;2022-12-05T04:19:42;33.72;;;14.68;;
75073;SDS011;63652;51.526;5.080;2022-12-05T04:22:30;46.25;;;17.45;;
75073;SDS011;63652;51.526;5.080;2022-12-05T04:24:56;47.65;;;18.25;;
75073;SDS011;63652;51.526;5.080;2022-12-05T04:27:46;31.45;;;14.07;;
75073;SDS011;63652;51.526;5.080;2022-12-05T04:30:22;47.17;;;20.70;;
75073;SDS011;63652;51.526;5.080;2022-12-05T04:33:07;47.25;;;20.83;;
75073;SDS011;63652;51.526;5.080;2022-12-05T04:35:40;29.70;;;14.27;;
75073;SDS011;63652;51.526;5.080;2022-12-05T04:38:08;46.35;;;18.70;;
75073;SDS011;63652;51.526;5.080;2022-12-05T04:40:43;45.90;;;19.65;;
75073;SDS011;63652;51.526;5.080;2022-12-05T04:43:17;45.70;;;20.15;;
75073;SDS011;63652;51.526;5.080;2022-12-05T04:45:44;50.03;;;19.67;;
75073;SDS011;63652;51.526;5.080;2022-12-05T04:48:11;31.88;;;13.38;;
75073;SDS011;63652;51.526;5.080;2022-12-05T04:50:39;43.25;;;17.60;;
75073;SDS011;63652;51.526;5.080;2022-12-05T04:53:06;46.10;;;17.00;;
75073;SDS011;63652;51.526;5.080;2022-12-05T04:55:33;41.90;;;19.60;;
75073;SDS011;63652;51.526;5.080;2022-12-05T04:58:07;46.20;;;19.73;;
75073;SDS011;63652;51.526;5.080;2022-12-05T05:03:36;43.85;;;17.95;;
75073;SDS011;63652;51.526;5.080;2022-12-05T05:06:05;46.10;;;18.95;;
75073;SDS011;63652;51.526;5.080;2022-12-05T05:08:31;37.38;;;13.27;;
75073;SDS011;63652;51.526;5.080;2022-12-05T05:13:25;42.70;;;18.88;;
75073;SDS011;63652;51.526;5.080;2022-12-05T05:15:50;46.85;;;17.42;;
75073;SDS011;63652;51.526;5.080;2022-12-05T05:18:15;50.08;;;19.85;;
75073;SDS011;63652;51.526;5.080;2022-12-05T05:20:41;40.10;;;15.80;;
75073;SDS011;63652;51.526;5.080;2022-12-05T05:23:06;48.17;;;20.17;;
75073;SDS011;63652;51.526;5.080;2022-12-05T05:25:31;40.38;;;18.10;;
75073;SDS011;63652;51.526;5.080;2022-12-05T05:27:57;45.50;;;17.30;;
75073;SDS011;63652;51.526;5.080;2022-12-05T05:30:22;48.88;;;18.20;;
75073;SDS011;63652;51.526;5.080;2022-12-05T05:32:48;44.25;;;18.73;;
75073;SDS011;63652;51.526;5.080;2022-12-05T05:35:14;34.42;;;14.13;;
75073;SDS011;63652;51.526;5.080;2022-12-05T05:37:40;42.97;;;17.13;;
75073;SDS011;63652;51.526;5.080;2022-12-05T05:40:06;43.47;;;17.20;;
75073;SDS011;63652;51.526;5.080;2022-12-05T05:42:33;45.63;;;18.45;;
75073;SDS011;63652;51.526;5.080;2022-12-05T05:44:58;41.55;;;15.88;;
75073;SDS011;63652;51.526;5.080;2022-12-05T05:47:23;48.17;;;17.90;;
75073;SDS011;63652;51.526;5.080;2022-12-05T05:49:49;37.83;;;16.63;;
75073;SDS011;63652;51.526;5.080;2022-12-05T05:52:14;41.55;;;16.35;;
75073;SDS011;63652;51.526;5.080;2022-12-05T05:54:39;43.45;;;19.20;;
75073;SDS011;63652;51.526;5.080;2022-12-05T05:57:05;45.38;;;17.25;;
75073;SDS011;63652;51.526;5.080;2022-12-05T05:59:30;46.90;;;18.65;;
75073;SDS011;63652;51.526;5.080;2022-12-05T06:01:56;50.33;;;19.35;;
75073;SDS011;63652;51.526;5.080;2022-12-05T06:04:21;42.33;;;17.25;;
75073;SDS011;63652;51.526;5.080;2022-12-05T06:06:46;43.05;;;16.35;;
75073;SDS011;63652;51.526;5.080;2022-12-05T06:09:12;41.75;;;16.63;;
75073;SDS011;63652;51.526;5.080;2022-12-05T06:11:37;45.55;;;18.15;;
75073;SDS011;63652;51.526;5.080;2022-12-05T06:14:02;38.03;;;16.65;;
75073;SDS011;63652;51.526;5.080;2022-12-05T06:16:28;40.72;;;17.17;;
75073;SDS011;63652;51.526;5.080;2022-12-05T06:18:55;40.58;;;16.55;;
75073;SDS011;63652;51.526;5.080;2022-12-05T06:21:21;36.47;;;15.38;;
75073;SDS011;63652;51.526;5.080;2022-12-05T06:23:46;41.17;;;16.70;;
75073;SDS011;63652;51.526;5.080;2022-12-05T06:26:13;41.47;;;15.90;;
75073;SDS011;63652;51.526;5.080;2022-12-05T06:28:40;39.55;;;16.17;;
75073;SDS011;63652;51.526;5.080;2022-12-05T06:31:09;42.85;;;17.40;;
75073;SDS011;63652;51.526;5.080;2022-12-05T06:33:42;37.92;;;16.10;;
75073;SDS011;63652;51.526;5.080;2022-12-05T06:36:10;34.58;;;14.57;;
75073;SDS011;63652;51.526;5.080;2022-12-05T06:38:37;37.58;;;16.38;;
75073;SDS011;63652;51.526;5.080;2022-12-05T06:41:11;40.58;;;17.42;;
75073;SDS011;63652;51.526;5.080;2022-12-05T06:43:39;41.92;;;16.60;;
75073;SDS011;63652;51.526;5.080;2022-12-05T06:46:05;39.20;;;17.05;;
75073;SDS011;63652;51.526;5.080;2022-12-05T06:48:31;40.85;;;16.42;;
75073;SDS011;63652;51.526;5.080;2022-12-05T06:50:56;43.17;;;15.88;;
75073;SDS011;63652;51.526;5.080;2022-12-05T06:53:22;41.47;;;15.77;;
75073;SDS011;63652;51.526;5.080;2022-12-05T06:55:57;40.40;;;17.13;;
75073;SDS011;63652;51.526;5.080;2022-12-05T06:58:24;41.83;;;16.85;;
75073;SDS011;63652;51.526;5.080;2022-12-05T07:00:49;36.50;;;15.57;;
75073;SDS011;63652;51.526;5.080;2022-12-05T07:03:33;39.83;;;16.33;;
75073;SDS011;63652;51.526;5.080;2022-12-05T07:05:59;35.28;;;15.30;;
75073;SDS011;63652;51.526;5.080;2022-12-05T07:08:26;41.03;;;16.13;;
75073;SDS011;63652;51.526;5.080;2022-12-05T07:10:51;36.60;;;15.63;;
75073;SDS011;63652;51.526;5.080;2022-12-05T07:13:17;36.42;;;15.43;;
75073;SDS011;63652;51.526;5.080;2022-12-05T07:15:44;33.30;;;13.63;;
75073;SDS011;63652;51.526;5.080;2022-12-05T07:18:10;39.95;;;16.05;;
75073;SDS011;63652;51.526;5.080;2022-12-05T07:20:36;38.78;;;16.20;;
75073;SDS011;63652;51.526;5.080;2022-12-05T07:23:01;36.17;;;15.35;;
75073;SDS011;63652;51.526;5.080;2022-12-05T07:25:26;39.05;;;16.30;;
75073;SDS011;63652;51.526;5.080;2022-12-05T07:27:52;31.23;;;13.65;;
75073;SDS011;63652;51.526;5.080;2022-12-05T07:30:17;30.23;;;13.88;;
75073;SDS011;63652;51.526;5.080;2022-12-05T07:32:42;34.92;;;15.73;;
75073;SDS011;63652;51.526;5.080;2022-12-05T07:35:08;32.65;;;13.48;;
75073;SDS011;63652;51.526;5.080;2022-12-05T07:37:33;35.08;;;13.85;;
75073;SDS011;63652;51.526;5.080;2022-12-05T07:39:58;38.65;;;15.93;;
75073;SDS011;63652;51.526;5.080;2022-12-05T07:42:24;35.25;;;14.73;;
75073;SDS011;63652;51.526;5.080;2022-12-05T07:44:49;31.15;;;13.43;;
75073;SDS011;63652;51.526;5.080;2022-12-05T07:47:15;32.53;;;13.75;;
75073;SDS011;63652;51.526;5.080;2022-12-05T07:49:40;35.85;;;14.02;;
75073;SDS011;63652;51.526;5.080;2022-12-05T07:52:05;29.73;;;12.63;;
75073;SDS011;63652;51.526;5.080;2022-12-05T07:54:31;28.30;;;12.75;;
75073;SDS011;63652;51.526;5.080;2022-12-05T07:56:57;32.95;;;12.68;;
75073;SDS011;63652;51.526;5.080;2022-12-05T07:59:22;31.42;;;15.23;;
75073;SDS011;63652;51.526;5.080;2022-12-05T08:01:48;32.92;;;14.23;;
75073;SDS011;63652;51.526;5.080;2022-12-05T08:04:13;27.25;;;12.05;;
75073;SDS011;63652;51.526;5.080;2022-12-05T08:06:38;30.45;;;13.43;;
75073;SDS011;63652;51.526;5.080;2022-12-05T08:09:04;29.20;;;13.95;;
75073;SDS011;63652;51.526;5.080;2022-12-05T08:11:30;29.65;;;12.70;;
75073;SDS011;63652;51.526;5.080;2022-12-05T08:13:59;30.02;;;12.90;;
75073;SDS011;63652;51.526;5.080;2022-12-05T08:16:25;31.77;;;14.43;;
75073;SDS011;63652;51.526;5.080;2022-12-05T08:18:53;33.80;;;14.65;;
75073;SDS011;63652;51.526;5.080;2022-12-05T08:21:22;31.60;;;12.90;;
75073;SDS011;63652;51.526;5.080;2022-12-05T08:23:49;31.65;;;12.70;;
75073;SDS011;63652;51.526;5.080;2022-12-05T08:26:25;30.95;;;14.25;;
75073;SDS011;63652;51.526;5.080;2022-12-05T08:28:52;29.02;;;12.68;;
75073;SDS011;63652;51.526;5.080;2022-12-05T08:31:19;30.40;;;11.55;;
75073;SDS011;63652;51.526;5.080;2022-12-05T08:33:45;26.05;;;12.35;;
75073;SDS011;63652;51.526;5.080;2022-12-05T08:36:11;29.95;;;13.00;;
75073;SDS011;63652;51.526;5.080;2022-12-05T08:38:38;28.55;;;12.70;;
75073;SDS011;63652;51.526;5.080;2022-12-05T08:41:04;26.55;;;12.13;;
75073;SDS011;63652;51.526;5.080;2022-12-05T08:43:33;28.75;;;12.27;;
75073;SDS011;63652;51.526;5.080;2022-12-05T08:45:58;25.10;;;12.02;;
75073;SDS011;63652;51.526;5.080;2022-12-05T08:48:24;28.70;;;12.30;;
75073;SDS011;63652;51.526;5.080;2022-12-05T08:50:50;28.05;;;12.05;;
75073;SDS011;63652;51.526;5.080;2022-12-05T08:53:16;33.08;;;13.75;;
75073;SDS011;63652;51.526;5.080;2022-12-05T08:55:42;29.90;;;12.55;;
75073;SDS011;63652;51.526;5.080;2022-12-05T08:58:07;29.63;;;11.57;;
75073;SDS011;63652;51.526;5.080;2022-12-05T09:00:33;34.90;;;12.68;;
75073;SDS011;63652;51.526;5.080;2022-12-05T09:02:58;24.85;;;12.40;;
75073;SDS011;63652;51.526;5.080;2022-12-05T09:05:24;27.90;;;12.07;;
75073;SDS011;63652;51.526;5.080;2022-12-05T09:07:49;28.88;;;12.30;;
75073;SDS011;63652;51.526;5.080;2022-12-05T09:10:15;28.50;;;12.70;;
75073;SDS011;63652;51.526;5.080;2022-12-05T09:12:40;31.88;;;14.50;;
75073;SDS011;63652;51.526;5.080;2022-12-05T09:15:06;30.67;;;13.82;;
75073;SDS011;63652;51.526;5.080;2022-12-05T09:17:33;30.45;;;13.38;;
75073;SDS011;63652;51.526;5.080;2022-12-05T09:19:58;29.35;;;14.05;;
75073;SDS011;63652;51.526;5.080;2022-12-05T09:22:24;34.58;;;14.25;;
75073;SDS011;63652;51.526;5.080;2022-12-05T09:24:49;37.03;;;14.25;;
75073;SDS011;63652;51.526;5.080;2022-12-05T09:27:15;34.75;;;14.43;;
75073;SDS011;63652;51.526;5.080;2022-12-05T09:29:40;37.75;;;14.88;;
75073;SDS011;63652;51.526;5.080;2022-12-05T09:32:06;37.92;;;14.63;;
75073;SDS011;63652;51.526;5.080;2022-12-05T09:34:32;34.58;;;15.63;;
75073;SDS011;63652;51.526;5.080;2022-12-05T09:36:57;37.47;;;15.00;;
75073;SDS011;63652;51.526;5.080;2022-12-05T09:39:24;30.67;;;12.73;;
75073;SDS011;63652;51.526;5.080;2022-12-05T09:44:40;28.20;;;13.45;;
75073;SDS011;63652;51.526;5.080;2022-12-05T09:47:10;30.25;;;13.32;;
75073;SDS011;63652;51.526;5.080;2022-12-05T09:49:38;29.48;;;13.25;;
75073;SDS011;63652;51.526;5.080;2022-12-05T09:52:13;29.92;;;13.05;;
75073;SDS011;63652;51.526;5.080;2022-12-05T09:54:46;27.60;;;13.23;;
75073;SDS011;63652;51.526;5.080;2022-12-05T09:57:12;28.88;;;13.48;;
75073;SDS011;63652;51.526;5.080;2022-12-05T09:59:37;31.73;;;13.93;;
75073;SDS011;63652;51.526;5.080;2022-12-05T10:02:05;30.27;;;12.82;;
75073;SDS011;63652;51.526;5.080;2022-12-05T10:04:57;29.52;;;12.57;;
75073;SDS011;63652;51.526;5.080;2022-12-05T10:16:10;31.02;;;12.07;;
75073;SDS011;63652;51.526;5.080;2022-12-05T10:18:46;26.50;;;11.13;;
75073;SDS011;63652;51.526;5.080;2022-12-05T10:21:24;28.65;;;12.00;;
75073;SDS011;63652;51.526;5.080;2022-12-05T10:23:55;22.40;;;11.10;;
75073;SDS011;63652;51.526;5.080;2022-12-05T10:26:24;23.88;;;11.50;;
75073;SDS011;63652;51.526;5.080;2022-12-05T10:28:57;25.67;;;11.60;;
75073;SDS011;63652;51.526;5.080;2022-12-05T10:31:36;27.38;;;12.27;;
75073;SDS011;63652;51.526;5.080;2022-12-05T10:36:55;29.13;;;11.95;;
75073;SDS011;63652;51.526;5.080;2022-12-05T10:39:22;22.83;;;10.30;;
75073;SDS011;63652;51.526;5.080;2022-12-05T10:41:48;28.15;;;11.23;;
75073;SDS011;63652;51.526;5.080;2022-12-05T10:44:14;26.63;;;11.80;;
75073;SDS011;63652;51.526;5.080;2022-12-05T10:46:39;24.83;;;10.68;;
75073;SDS011;63652;51.526;5.080;2022-12-05T10:49:11;24.92;;;11.55;;
75073;SDS011;63652;51.526;5.080;2022-12-05T10:51:37;25.45;;;11.10;;
75073;SDS011;63652;51.526;5.080;2022-12-05T10:54:14;22.48;;;10.35;;
75073;SDS011;63652;51.526;5.080;2022-12-05T10:56:46;23.65;;;10.68;;
75073;SDS011;63652;51.526;5.080;2022-12-05T10:59:14;23.08;;;10.80;;
75073;SDS011;63652;51.526;5.080;2022-12-05T11:01:45;20.50;;;11.02;;
75073;SDS011;63652;51.526;5.080;2022-12-05T11:06:50;18.08;;;10.00;;
75073;SDS011;63652;51.526;5.080;2022-12-05T11:09:17;19.20;;;8.75;;
75073;SDS011;63652;51.526;5.080;2022-12-05T11:17:35;17.95;;;8.27;;
75073;SDS011;63652;51.526;5.080;2022-12-05T11:20:04;17.60;;;9.05;;
75073;SDS011;63652;51.526;5.080;2022-12-05T11:22:53;13.93;;;7.15;;
75073;SDS011;63652;51.526;5.080;2022-12-05T11:28:44;15.93;;;7.60;;
75073;SDS011;63652;51.526;5.080;2022-12-05T11:33:23;14.90;;;7.85;;
75073;SDS011;63652;51.526;5.080;2022-12-05T11:35:51;17.00;;;7.90;;
75073;SDS011;63652;51.526;5.080;2022-12-05T11:38:19;22.83;;;8.85;;
75073;SDS011;63652;51.526;5.080;2022-12-05T11:40:48;22.77;;;7.53;;
75073;SDS011;63652;51.526;5.080;2022-12-05T11:48:37;15.15;;;7.47;;
75073;SDS011;63652;51.526;5.080;2022-12-05T11:54:02;15.85;;;8.02;;
75073;SDS011;63652;51.526;5.080;2022-12-05T11:56:56;16.88;;;8.10;;
75073;SDS011;63652;51.526;5.080;2022-12-05T11:59:31;17.50;;;8.43;;
75073;SDS011;63652;51.526;5.080;2022-12-05T12:05:14;17.15;;;9.02;;
75073;SDS011;63652;51.526;5.080;2022-12-05T12:24:39;16.50;;;7.40;;
75073;SDS011;63652;51.526;5.080;2022-12-05T12:35:26;12.40;;;6.60;;
75073;SDS011;63652;51.526;5.080;2022-12-05T12:37:56;15.38;;;6.88;;
75073;SDS011;63652;51.526;5.080;2022-12-05T12:40:37;11.77;;;6.18;;
75073;SDS011;63652;51.526;5.080;2022-12-05T12:45:43;13.45;;;7.53;;
75073;SDS011;63652;51.526;5.080;2022-12-05T12:50:59;16.33;;;7.85;;
75073;SDS011;63652;51.526;5.080;2022-12-05T12:56:01;16.70;;;8.05;;
75073;SDS011;63652;51.526;5.080;2022-12-05T12:59:07;18.17;;;8.43;;
75073;SDS011;63652;51.526;5.080;2022-12-05T13:01:41;15.27;;;7.95;;
75073;SDS011;63652;51.526;5.080;2022-12-05T13:04:12;15.90;;;7.13;;
75073;SDS011;63652;51.526;5.080;2022-12-05T13:06:47;15.93;;;8.18;;
75073;SDS011;63652;51.526;5.080;2022-12-05T13:11:49;16.88;;;8.45;;
75073;SDS011;63652;51.526;5.080;2022-12-05T13:14:16;15.32;;;8.88;;
75073;SDS011;63652;51.526;5.080;2022-12-05T13:16:44;17.98;;;8.95;;
75073;SDS011;63652;51.526;5.080;2022-12-05T13:19:26;20.15;;;8.88;;
75073;SDS011;63652;51.526;5.080;2022-12-05T13:21:53;16.80;;;9.07;;
75073;SDS011;63652;51.526;5.080;2022-12-05T13:24:21;19.10;;;9.70;;
75073;SDS011;63652;51.526;5.080;2022-12-05T13:26:49;23.92;;;10.00;;
75073;SDS011;63652;51.526;5.080;2022-12-05T13:29:19;20.70;;;9.40;;
75073;SDS011;63652;51.526;5.080;2022-12-05T13:31:46;21.02;;;10.02;;
75073;SDS011;63652;51.526;5.080;2022-12-05T13:36:58;19.85;;;10.05;;
75073;SDS011;63652;51.526;5.080;2022-12-05T13:39:53;21.05;;;10.00;;
75073;SDS011;63652;51.526;5.080;2022-12-05T13:42:38;19.55;;;9.43;;
75073;SDS011;63652;51.526;5.080;2022-12-05T13:47:34;21.42;;;10.90;;
75073;SDS011;63652;51.526;5.080;2022-12-05T13:53:06;19.42;;;9.38;;
75073;SDS011;63652;51.526;5.080;2022-12-05T14:00:49;18.27;;;8.63;;
75073;SDS011;63652;51.526;5.080;2022-12-05T14:05:59;16.23;;;8.15;;
75073;SDS011;63652;51.526;5.080;2022-12-05T14:15:49;16.30;;;8.60;;
75073;SDS011;63652;51.526;5.080;2022-12-05T14:18:17;18.23;;;9.27;;
75073;SDS011;63652;51.526;5.080;2022-12-05T14:34:32;17.25;;;8.40;;
75073;SDS011;63652;51.526;5.080;2022-12-05T14:37:03;16.98;;;9.23;;
75073;SDS011;63652;51.526;5.080;2022-12-05T14:39:33;19.67;;;9.43;;
75073;SDS011;63652;51.526;5.080;2022-12-05T14:45:55;21.27;;;9.55;;
75073;SDS011;63652;51.526;5.080;2022-12-05T14:48:26;22.10;;;10.70;;
75073;SDS011;63652;51.526;5.080;2022-12-05T14:50:54;24.00;;;10.50;;
75073;SDS011;63652;51.526;5.080;2022-12-05T15:01:00;26.05;;;12.40;;
75073;SDS011;63652;51.526;5.080;2022-12-05T15:03:29;23.45;;;11.93;;
75073;SDS011;63652;51.526;5.080;2022-12-05T15:05:56;23.35;;;11.82;;
75073;SDS011;63652;51.526;5.080;2022-12-05T15:08:22;27.17;;;12.00;;
75073;SDS011;63652;51.526;5.080;2022-12-05T15:10:48;27.63;;;13.65;;
75073;SDS011;63652;51.526;5.080;2022-12-05T15:15:42;32.38;;;13.85;;
75073;SDS011;63652;51.526;5.080;2022-12-05T15:18:18;24.48;;;12.55;;
75073;SDS011;63652;51.526;5.080;2022-12-05T15:23:37;22.38;;;11.73;;
75073;SDS011;63652;51.526;5.080;2022-12-05T15:26:04;23.73;;;10.93;;
75073;SDS011;63652;51.526;5.080;2022-12-05T15:28:30;24.92;;;11.85;;
75073;SDS011;63652;51.526;5.080;2022-12-05T15:30:55;20.52;;;10.52;;
75073;SDS011;63652;51.526;5.080;2022-12-05T15:33:21;25.83;;;11.38;;
75073;SDS011;63652;51.526;5.080;2022-12-05T15:35:47;23.98;;;11.88;;
75073;SDS011;63652;51.526;5.080;2022-12-05T15:38:25;19.67;;;10.88;;
75073;SDS011;63652;51.526;5.080;2022-12-05T15:40:53;22.42;;;11.50;;
75073;SDS011;63652;51.526;5.080;2022-12-05T15:43:29;23.63;;;10.80;;
75073;SDS011;63652;51.526;5.080;2022-12-05T15:46:05;25.05;;;11.27;;
75073;SDS011;63652;51.526;5.080;2022-12-05T15:48:44;23.60;;;10.32;;
75073;SDS011;63652;51.526;5.080;2022-12-05T15:51:09;24.52;;;10.60;;
75073;SDS011;63652;51.526;5.080;2022-12-05T15:53:36;20.45;;;10.70;;
75073;SDS011;63652;51.526;5.080;2022-12-05T15:59:38;19.00;;;9.32;;
75073;SDS011;63652;51.526;5.080;2022-12-05T16:02:41;20.15;;;10.45;;
75073;SDS011;63652;51.526;5.080;2022-12-05T16:05:15;19.17;;;9.32;;
75073;SDS011;63652;51.526;5.080;2022-12-05T16:07:56;18.05;;;8.57;;
75073;SDS011;63652;51.526;5.080;2022-12-05T16:10:21;15.52;;;7.45;;
75073;SDS011;63652;51.526;5.080;2022-12-05T16:12:48;11.82;;;5.90;;
75073;SDS011;63652;51.526;5.080;2022-12-05T16:15:22;14.52;;;6.35;;
75073;SDS011;63652;51.526;5.080;2022-12-05T16:17:57;11.00;;;5.20;;
75073;SDS011;63652;51.526;5.080;2022-12-05T16:22:55;11.35;;;5.60;;
75073;SDS011;63652;51.526;5.080;2022-12-05T16:25:25;11.35;;;5.40;;
75073;SDS011;63652;51.526;5.080;2022-12-05T16:27:58;9.20;;;4.38;;
75073;SDS011;63652;51.526;5.080;2022-12-05T16:30:26;9.20;;;5.13;;
75073;SDS011;63652;51.526;5.080;2022-12-05T16:33:02;11.68;;;5.22;;
75073;SDS011;63652;51.526;5.080;2022-12-05T16:35:31;8.98;;;4.47;;
75073;SDS011;63652;51.526;5.080;2022-12-05T16:38:18;9.73;;;4.88;;
75073;SDS011;63652;51.526;5.080;2022-12-05T16:43:18;10.18;;;5.05;;
75073;SDS011;63652;51.526;5.080;2022-12-05T16:45:45;11.10;;;5.70;;
75073;SDS011;63652;51.526;5.080;2022-12-05T16:48:15;12.70;;;6.68;;
75073;SDS011;63652;51.526;5.080;2022-12-05T16:56:15;8.43;;;4.00;;
75073;SDS011;63652;51.526;5.080;2022-12-05T16:58:44;7.53;;;3.30;;
75073;SDS011;63652;51.526;5.080;2022-12-05T17:01:14;10.18;;;4.32;;
75073;SDS011;63652;51.526;5.080;2022-12-05T17:03:41;9.27;;;4.57;;
75073;SDS011;63652;51.526;5.080;2022-12-05T17:06:07;7.78;;;3.92;;
75073;SDS011;63652;51.526;5.080;2022-12-05T17:08:36;9.85;;;4.25;;
75073;SDS011;63652;51.526;5.080;2022-12-05T17:11:01;8.10;;;4.38;;
75073;SDS011;63652;51.526;5.080;2022-12-05T17:13:27;11.70;;;5.07;;
75073;SDS011;63652;51.526;5.080;2022-12-05T17:15:53;10.20;;;4.45;;
75073;SDS011;63652;51.526;5.080;2022-12-05T17:18:20;7.90;;;3.97;;
75073;SDS011;63652;51.526;5.080;2022-12-05T17:20:51;8.82;;;3.63;;
75073;SDS011;63652;51.526;5.080;2022-12-05T17:23:18;9.00;;;3.47;;
75073;SDS011;63652;51.526;5.080;2022-12-05T17:25:45;11.43;;;4.10;;
75073;SDS011;63652;51.526;5.080;2022-12-05T17:28:16;7.28;;;3.90;;
75073;SDS011;63652;51.526;5.080;2022-12-05T17:30:41;9.10;;;4.32;;
75073;SDS011;63652;51.526;5.080;2022-12-05T17:33:11;9.35;;;4.70;;
75073;SDS011;63652;51.526;5.080;2022-12-05T17:35:37;9.60;;;4.80;;
75073;SDS011;63652;51.526;5.080;2022-12-05T17:38:03;9.45;;;4.57;;
75073;SDS011;63652;51.526;5.080;2022-12-05T17:40:29;8.40;;;4.15;;
75073;SDS011;63652;51.526;5.080;2022-12-05T17:42:54;7.93;;;4.28;;
75073;SDS011;63652;51.526;5.080;2022-12-05T17:45:20;7.38;;;3.70;;
75073;SDS011;63652;51.526;5.080;2022-12-05T17:47:46;7.75;;;3.53;;
75073;SDS011;63652;51.526;5.080;2022-12-05T17:50:13;7.88;;;3.60;;
75073;SDS011;63652;51.526;5.080;2022-12-05T17:52:41;6.95;;;3.75;;
75073;SDS011;63652;51.526;5.080;2022-12-05T17:55:10;9.70;;;4.20;;
75073;SDS011;63652;51.526;5.080;2022-12-05T17:57:40;9.07;;;3.72;;